sensor_id;sensor_type;location;lat;lon;timestamp;P1;durP1;ratioP1;P2;durP2;ratioP2
10232;SDS011;5161;48.174;11.756;2023-03-01T00:01:49;24.40;;;18.87;;
10232;SDS011;5161;48.174;11.756;2023-03-01T00:04:15;26.00;;;18.67;;
10232;SDS011;5161;48.174;11.756;2023-03-01T00:06:42;24.97;;;18.97;;
10232;SDS011;5161;48.174;11.756;2023-03-01T00:09:10;25.00;;;18.30;;
10232;SDS011;5161;48.174;11.756;2023-03-01T00:11:37;24.00;;;19.37;;
10232;SDS011;5161;48.174;11.756;2023-03-01T00:14:02;23.80;;;18.33;;
10232;SDS011;5161;48.174;11.756;2023-03-01T00:16:41;23.13;;;18.23;;
10232;SDS011;5161;48.174;11.756;2023-03-01T00:19:10;24.87;;;19.13;;
10232;SDS011;5161;48.174;11.756;2023-03-01T00:21:47;26.03;;;19.30;;
10232;SDS011;5161;48.174;11.756;2023-03-01T00:24:13;24.43;;;19.40;;
10232;SDS011;5161;48.174;11.756;2023-03-01T00:26:38;24.97;;;19.50;;
10232;SDS011;5161;48.174;11.756;2023-03-01T00:29:04;25.40;;;19.10;;
10232;SDS011;5161;48.174;11.756;2023-03-01T00:31:31;27.13;;;19.50;;
10232;SDS011;5161;48.174;11.756;2023-03-01T00:33:59;23.30;;;18.43;;
10232;SDS011;5161;48.174;11.756;2023-03-01T00:36:31;25.70;;;19.07;;
10232;SDS011;5161;48.174;11.756;2023-03-01T00:38:58;25.17;;;18.73;;
10232;SDS011;5161;48.174;11.756;2023-03-01T00:41:24;28.07;;;19.63;;
10232;SDS011;5161;48.174;11.756;2023-03-01T00:43:51;26.17;;;19.40;;
10232;SDS011;5161;48.174;11.756;2023-03-01T00:46:18;25.37;;;19.27;;
10232;SDS011;5161;48.174;11.756;2023-03-01T00:48:45;25.30;;;19.47;;
10232;SDS011;5161;48.174;11.756;2023-03-01T00:53:38;25.07;;;19.07;;
10232;SDS011;5161;48.174;11.756;2023-03-01T00:56:04;24.83;;;19.10;;
10232;SDS011;5161;48.174;11.756;2023-03-01T00:58:31;26.10;;;19.20;;
10232;SDS011;5161;48.174;11.756;2023-03-01T01:00:57;26.90;;;19.13;;
10232;SDS011;5161;48.174;11.756;2023-03-01T01:03:23;25.57;;;19.13;;
10232;SDS011;5161;48.174;11.756;2023-03-01T01:05:52;25.43;;;18.77;;
10232;SDS011;5161;48.174;11.756;2023-03-01T01:08:18;23.23;;;17.87;;
10232;SDS011;5161;48.174;11.756;2023-03-01T01:10:45;24.10;;;18.67;;
10232;SDS011;5161;48.174;11.756;2023-03-01T01:13:11;26.40;;;19.47;;
10232;SDS011;5161;48.174;11.756;2023-03-01T01:15:37;25.20;;;19.27;;
10232;SDS011;5161;48.174;11.756;2023-03-01T01:18:02;26.63;;;19.13;;
10232;SDS011;5161;48.174;11.756;2023-03-01T01:20:28;26.10;;;19.80;;
10232;SDS011;5161;48.174;11.756;2023-03-01T01:22:54;23.90;;;18.97;;
10232;SDS011;5161;48.174;11.756;2023-03-01T01:25:20;25.73;;;19.10;;
10232;SDS011;5161;48.174;11.756;2023-03-01T01:27:46;24.40;;;19.07;;
10232;SDS011;5161;48.174;11.756;2023-03-01T01:30:11;26.40;;;19.33;;
10232;SDS011;5161;48.174;11.756;2023-03-01T01:32:37;25.73;;;19.03;;
10232;SDS011;5161;48.174;11.756;2023-03-01T01:35:04;25.77;;;18.63;;
10232;SDS011;5161;48.174;11.756;2023-03-01T01:37:30;23.93;;;18.47;;
10232;SDS011;5161;48.174;11.756;2023-03-01T01:39:58;26.40;;;19.40;;
10232;SDS011;5161;48.174;11.756;2023-03-01T01:42:24;22.73;;;18.80;;
10232;SDS011;5161;48.174;11.756;2023-03-01T01:47:55;24.60;;;19.67;;
10232;SDS011;5161;48.174;11.756;2023-03-01T01:50:28;27.37;;;19.17;;
10232;SDS011;5161;48.174;11.756;2023-03-01T01:53:03;26.50;;;19.40;;
10232;SDS011;5161;48.174;11.756;2023-03-01T01:55:34;27.00;;;19.40;;
10232;SDS011;5161;48.174;11.756;2023-03-01T01:58:04;25.67;;;19.17;;
10232;SDS011;5161;48.174;11.756;2023-03-01T02:00:33;23.90;;;18.90;;
10232;SDS011;5161;48.174;11.756;2023-03-01T02:03:03;24.83;;;19.83;;
10232;SDS011;5161;48.174;11.756;2023-03-01T02:08:27;22.93;;;18.77;;
10232;SDS011;5161;48.174;11.756;2023-03-01T02:10:55;23.50;;;19.07;;
10232;SDS011;5161;48.174;11.756;2023-03-01T02:13:22;25.50;;;19.03;;
10232;SDS011;5161;48.174;11.756;2023-03-01T02:15:48;28.23;;;19.00;;
10232;SDS011;5161;48.174;11.756;2023-03-01T02:18:14;24.93;;;19.50;;
10232;SDS011;5161;48.174;11.756;2023-03-01T02:23:24;25.93;;;19.30;;
10232;SDS011;5161;48.174;11.756;2023-03-01T02:26:07;24.03;;;19.20;;
10232;SDS011;5161;48.174;11.756;2023-03-01T02:28:53;24.47;;;18.87;;
10232;SDS011;5161;48.174;11.756;2023-03-01T02:31:19;24.27;;;18.57;;
10232;SDS011;5161;48.174;11.756;2023-03-01T02:34:05;24.50;;;18.60;;
10232;SDS011;5161;48.174;11.756;2023-03-01T02:36:49;24.20;;;17.83;;
10232;SDS011;5161;48.174;11.756;2023-03-01T02:39:21;28.13;;;18.73;;
10232;SDS011;5161;48.174;11.756;2023-03-01T02:41:52;26.10;;;19.27;;
10232;SDS011;5161;48.174;11.756;2023-03-01T02:44:20;24.73;;;18.43;;
10232;SDS011;5161;48.174;11.756;2023-03-01T02:46:47;25.47;;;18.93;;
10232;SDS011;5161;48.174;11.756;2023-03-01T02:52:01;23.77;;;18.90;;
10232;SDS011;5161;48.174;11.756;2023-03-01T02:54:40;25.00;;;18.67;;
10232;SDS011;5161;48.174;11.756;2023-03-01T02:57:13;22.37;;;18.47;;
10232;SDS011;5161;48.174;11.756;2023-03-01T02:59:39;27.90;;;20.37;;
10232;SDS011;5161;48.174;11.756;2023-03-01T03:02:08;25.23;;;20.13;;
10232;SDS011;5161;48.174;11.756;2023-03-01T03:05:00;24.07;;;19.17;;
10232;SDS011;5161;48.174;11.756;2023-03-01T03:07:33;24.77;;;19.17;;
10232;SDS011;5161;48.174;11.756;2023-03-01T03:10:04;24.57;;;18.70;;
10232;SDS011;5161;48.174;11.756;2023-03-01T03:12:31;25.60;;;19.80;;
10232;SDS011;5161;48.174;11.756;2023-03-01T03:14:57;26.47;;;20.33;;
10232;SDS011;5161;48.174;11.756;2023-03-01T03:17:22;24.80;;;19.53;;
10232;SDS011;5161;48.174;11.756;2023-03-01T03:19:48;26.43;;;18.97;;
10232;SDS011;5161;48.174;11.756;2023-03-01T03:22:14;26.80;;;20.03;;
10232;SDS011;5161;48.174;11.756;2023-03-01T03:24:39;25.80;;;19.50;;
10232;SDS011;5161;48.174;11.756;2023-03-01T03:27:05;25.00;;;19.80;;
10232;SDS011;5161;48.174;11.756;2023-03-01T03:29:31;25.90;;;19.90;;
10232;SDS011;5161;48.174;11.756;2023-03-01T03:31:58;24.03;;;18.90;;
10232;SDS011;5161;48.174;11.756;2023-03-01T03:34:24;26.60;;;19.83;;
10232;SDS011;5161;48.174;11.756;2023-03-01T03:36:53;24.90;;;20.20;;
10232;SDS011;5161;48.174;11.756;2023-03-01T03:39:21;27.37;;;20.70;;
10232;SDS011;5161;48.174;11.756;2023-03-01T03:41:48;24.97;;;19.13;;
10232;SDS011;5161;48.174;11.756;2023-03-01T03:44:13;25.47;;;19.73;;
10232;SDS011;5161;48.174;11.756;2023-03-01T03:46:39;27.03;;;20.10;;
10232;SDS011;5161;48.174;11.756;2023-03-01T03:49:05;26.30;;;20.47;;
10232;SDS011;5161;48.174;11.756;2023-03-01T03:51:30;25.23;;;19.80;;
10232;SDS011;5161;48.174;11.756;2023-03-01T03:53:56;26.87;;;19.57;;
10232;SDS011;5161;48.174;11.756;2023-03-01T03:56:21;24.77;;;19.10;;
10232;SDS011;5161;48.174;11.756;2023-03-01T03:58:50;26.10;;;20.07;;
10232;SDS011;5161;48.174;11.756;2023-03-01T04:01:16;25.87;;;20.53;;
10232;SDS011;5161;48.174;11.756;2023-03-01T04:03:42;27.40;;;20.93;;
10232;SDS011;5161;48.174;11.756;2023-03-01T04:06:11;26.87;;;20.57;;
10232;SDS011;5161;48.174;11.756;2023-03-01T04:08:38;26.53;;;20.10;;
10232;SDS011;5161;48.174;11.756;2023-03-01T04:11:04;24.83;;;20.10;;
10232;SDS011;5161;48.174;11.756;2023-03-01T04:13:49;27.17;;;20.53;;
10232;SDS011;5161;48.174;11.756;2023-03-01T04:16:16;24.93;;;19.70;;
10232;SDS011;5161;48.174;11.756;2023-03-01T04:18:42;27.77;;;20.10;;
10232;SDS011;5161;48.174;11.756;2023-03-01T04:21:08;27.30;;;20.10;;
10232;SDS011;5161;48.174;11.756;2023-03-01T04:23:35;27.17;;;19.13;;
10232;SDS011;5161;48.174;11.756;2023-03-01T04:26:01;28.30;;;19.33;;
10232;SDS011;5161;48.174;11.756;2023-03-01T04:28:28;28.30;;;20.37;;
10232;SDS011;5161;48.174;11.756;2023-03-01T04:31:01;25.27;;;19.57;;
10232;SDS011;5161;48.174;11.756;2023-03-01T04:33:41;25.20;;;19.57;;
10232;SDS011;5161;48.174;11.756;2023-03-01T04:36:09;25.53;;;19.23;;
10232;SDS011;5161;48.174;11.756;2023-03-01T04:38:36;26.33;;;19.27;;
10232;SDS011;5161;48.174;11.756;2023-03-01T04:41:04;25.53;;;18.87;;
10232;SDS011;5161;48.174;11.756;2023-03-01T04:43:30;23.70;;;18.17;;
10232;SDS011;5161;48.174;11.756;2023-03-01T04:46:01;26.40;;;19.27;;
10232;SDS011;5161;48.174;11.756;2023-03-01T04:48:28;25.70;;;18.97;;
10232;SDS011;5161;48.174;11.756;2023-03-01T04:50:54;26.23;;;19.53;;
10232;SDS011;5161;48.174;11.756;2023-03-01T04:53:19;30.40;;;19.07;;
10232;SDS011;5161;48.174;11.756;2023-03-01T04:55:45;24.97;;;19.47;;
10232;SDS011;5161;48.174;11.756;2023-03-01T04:58:10;28.20;;;19.83;;
10232;SDS011;5161;48.174;11.756;2023-03-01T05:00:36;26.00;;;19.67;;
10232;SDS011;5161;48.174;11.756;2023-03-01T05:03:02;25.07;;;19.17;;
10232;SDS011;5161;48.174;11.756;2023-03-01T05:07:56;25.83;;;19.37;;
10232;SDS011;5161;48.174;11.756;2023-03-01T05:10:25;24.07;;;18.73;;
10232;SDS011;5161;48.174;11.756;2023-03-01T05:12:54;27.53;;;20.20;;
10232;SDS011;5161;48.174;11.756;2023-03-01T05:15:22;26.97;;;20.00;;
10232;SDS011;5161;48.174;11.756;2023-03-01T05:17:50;26.77;;;19.43;;
10232;SDS011;5161;48.174;11.756;2023-03-01T05:20:17;28.27;;;20.67;;
10232;SDS011;5161;48.174;11.756;2023-03-01T05:22:43;26.70;;;20.43;;
10232;SDS011;5161;48.174;11.756;2023-03-01T05:25:09;27.90;;;20.77;;
10232;SDS011;5161;48.174;11.756;2023-03-01T05:27:35;29.63;;;20.87;;
10232;SDS011;5161;48.174;11.756;2023-03-01T05:30:01;30.23;;;20.33;;
10232;SDS011;5161;48.174;11.756;2023-03-01T05:32:39;27.27;;;20.63;;
10232;SDS011;5161;48.174;11.756;2023-03-01T05:35:06;28.90;;;20.33;;
10232;SDS011;5161;48.174;11.756;2023-03-01T05:37:31;27.17;;;20.77;;
10232;SDS011;5161;48.174;11.756;2023-03-01T05:39:57;26.57;;;20.43;;
10232;SDS011;5161;48.174;11.756;2023-03-01T05:42:23;27.63;;;20.37;;
10232;SDS011;5161;48.174;11.756;2023-03-01T05:44:48;31.03;;;21.70;;
10232;SDS011;5161;48.174;11.756;2023-03-01T05:47:14;27.83;;;20.33;;
10232;SDS011;5161;48.174;11.756;2023-03-01T05:49:39;27.93;;;20.40;;
10232;SDS011;5161;48.174;11.756;2023-03-01T05:52:05;28.00;;;20.87;;
10232;SDS011;5161;48.174;11.756;2023-03-01T05:54:30;27.40;;;20.00;;
10232;SDS011;5161;48.174;11.756;2023-03-01T05:56:56;31.47;;;21.37;;
10232;SDS011;5161;48.174;11.756;2023-03-01T05:59:21;28.23;;;20.73;;
10232;SDS011;5161;48.174;11.756;2023-03-01T06:01:47;30.10;;;20.87;;
10232;SDS011;5161;48.174;11.756;2023-03-01T06:04:12;27.63;;;21.37;;
10232;SDS011;5161;48.174;11.756;2023-03-01T06:06:38;27.37;;;19.73;;
10232;SDS011;5161;48.174;11.756;2023-03-01T06:09:05;29.67;;;21.10;;
10232;SDS011;5161;48.174;11.756;2023-03-01T06:11:33;27.80;;;20.63;;
10232;SDS011;5161;48.174;11.756;2023-03-01T06:13:59;28.47;;;20.83;;
10232;SDS011;5161;48.174;11.756;2023-03-01T06:16:24;28.40;;;20.77;;
10232;SDS011;5161;48.174;11.756;2023-03-01T06:18:50;27.90;;;19.93;;
10232;SDS011;5161;48.174;11.756;2023-03-01T06:21:16;29.17;;;21.00;;
10232;SDS011;5161;48.174;11.756;2023-03-01T06:23:41;29.43;;;22.03;;
10232;SDS011;5161;48.174;11.756;2023-03-01T06:26:07;29.47;;;21.03;;
10232;SDS011;5161;48.174;11.756;2023-03-01T06:28:33;30.23;;;20.97;;
10232;SDS011;5161;48.174;11.756;2023-03-01T06:30:59;31.20;;;20.93;;
10232;SDS011;5161;48.174;11.756;2023-03-01T06:33:25;29.17;;;20.30;;
10232;SDS011;5161;48.174;11.756;2023-03-01T06:35:51;32.13;;;21.33;;
10232;SDS011;5161;48.174;11.756;2023-03-01T06:38:20;29.50;;;21.57;;
10232;SDS011;5161;48.174;11.756;2023-03-01T06:40:51;32.70;;;21.77;;
10232;SDS011;5161;48.174;11.756;2023-03-01T06:43:18;28.33;;;21.40;;
10232;SDS011;5161;48.174;11.756;2023-03-01T06:45:44;28.57;;;20.67;;
10232;SDS011;5161;48.174;11.756;2023-03-01T06:48:10;31.07;;;20.33;;
10232;SDS011;5161;48.174;11.756;2023-03-01T06:50:36;30.40;;;20.47;;
10232;SDS011;5161;48.174;11.756;2023-03-01T06:53:02;29.43;;;20.43;;
10232;SDS011;5161;48.174;11.756;2023-03-01T06:55:28;29.80;;;20.37;;
10232;SDS011;5161;48.174;11.756;2023-03-01T06:57:55;32.03;;;20.67;;
10232;SDS011;5161;48.174;11.756;2023-03-01T07:00:24;29.55;;;23.80;;
10232;SDS011;5161;48.174;11.756;2023-03-01T07:02:51;31.90;;;22.40;;
10232;SDS011;5161;48.174;11.756;2023-03-01T07:05:17;31.03;;;21.87;;
10232;SDS011;5161;48.174;11.756;2023-03-01T07:07:43;33.70;;;23.10;;
10232;SDS011;5161;48.174;11.756;2023-03-01T07:10:09;33.90;;;22.93;;
10232;SDS011;5161;48.174;11.756;2023-03-01T07:12:35;38.07;;;22.70;;
10232;SDS011;5161;48.174;11.756;2023-03-01T07:15:01;32.77;;;22.70;;
10232;SDS011;5161;48.174;11.756;2023-03-01T07:17:28;31.20;;;21.70;;
10232;SDS011;5161;48.174;11.756;2023-03-01T07:19:53;32.43;;;22.13;;
10232;SDS011;5161;48.174;11.756;2023-03-01T07:22:19;31.70;;;22.20;;
10232;SDS011;5161;48.174;11.756;2023-03-01T07:24:44;31.67;;;22.57;;
10232;SDS011;5161;48.174;11.756;2023-03-01T07:27:10;32.50;;;22.13;;
10232;SDS011;5161;48.174;11.756;2023-03-01T07:29:36;32.97;;;21.70;;
10232;SDS011;5161;48.174;11.756;2023-03-01T07:32:02;30.63;;;21.73;;
10232;SDS011;5161;48.174;11.756;2023-03-01T07:34:28;33.80;;;22.10;;
10232;SDS011;5161;48.174;11.756;2023-03-01T07:36:54;31.93;;;22.63;;
10232;SDS011;5161;48.174;11.756;2023-03-01T07:39:20;30.50;;;22.33;;
10232;SDS011;5161;48.174;11.756;2023-03-01T07:41:47;30.83;;;21.80;;
10232;SDS011;5161;48.174;11.756;2023-03-01T07:44:13;33.03;;;22.17;;
10232;SDS011;5161;48.174;11.756;2023-03-01T07:46:40;29.93;;;21.67;;
10232;SDS011;5161;48.174;11.756;2023-03-01T07:49:06;30.47;;;22.00;;
10232;SDS011;5161;48.174;11.756;2023-03-01T07:51:31;31.40;;;21.80;;
10232;SDS011;5161;48.174;11.756;2023-03-01T07:53:57;31.43;;;21.83;;
10232;SDS011;5161;48.174;11.756;2023-03-01T07:56:23;32.93;;;22.60;;
10232;SDS011;5161;48.174;11.756;2023-03-01T07:58:48;33.93;;;22.13;;
10232;SDS011;5161;48.174;11.756;2023-03-01T08:01:15;30.47;;;21.63;;
10232;SDS011;5161;48.174;11.756;2023-03-01T08:03:42;29.93;;;21.33;;
10232;SDS011;5161;48.174;11.756;2023-03-01T08:06:11;32.30;;;22.50;;
10232;SDS011;5161;48.174;11.756;2023-03-01T08:08:38;33.43;;;22.70;;
10232;SDS011;5161;48.174;11.756;2023-03-01T08:11:05;31.00;;;22.03;;
10232;SDS011;5161;48.174;11.756;2023-03-01T08:13:32;32.27;;;22.53;;
10232;SDS011;5161;48.174;11.756;2023-03-01T08:16:06;29.67;;;22.53;;
10232;SDS011;5161;48.174;11.756;2023-03-01T08:18:36;36.37;;;22.30;;
10232;SDS011;5161;48.174;11.756;2023-03-01T08:21:06;31.53;;;22.40;;
10232;SDS011;5161;48.174;11.756;2023-03-01T08:23:33;31.83;;;23.43;;
10232;SDS011;5161;48.174;11.756;2023-03-01T08:26:03;31.20;;;22.50;;
10232;SDS011;5161;48.174;11.756;2023-03-01T08:28:31;32.67;;;22.07;;
10232;SDS011;5161;48.174;11.756;2023-03-01T08:30:57;29.63;;;21.47;;
10232;SDS011;5161;48.174;11.756;2023-03-01T08:33:23;33.10;;;21.70;;
10232;SDS011;5161;48.174;11.756;2023-03-01T08:35:48;31.10;;;21.20;;
10232;SDS011;5161;48.174;11.756;2023-03-01T08:38:14;33.50;;;22.50;;
10232;SDS011;5161;48.174;11.756;2023-03-01T08:40:39;33.47;;;22.47;;
10232;SDS011;5161;48.174;11.756;2023-03-01T08:43:05;33.23;;;22.27;;
10232;SDS011;5161;48.174;11.756;2023-03-01T08:45:31;31.00;;;22.90;;
10232;SDS011;5161;48.174;11.756;2023-03-01T08:47:56;28.83;;;21.60;;
10232;SDS011;5161;48.174;11.756;2023-03-01T08:50:22;34.87;;;21.87;;
10232;SDS011;5161;48.174;11.756;2023-03-01T08:52:49;32.07;;;22.47;;
10232;SDS011;5161;48.174;11.756;2023-03-01T08:55:15;30.13;;;22.43;;
10232;SDS011;5161;48.174;11.756;2023-03-01T08:57:42;29.70;;;22.00;;
10232;SDS011;5161;48.174;11.756;2023-03-01T09:00:08;30.83;;;22.83;;
10232;SDS011;5161;48.174;11.756;2023-03-01T09:02:36;33.60;;;22.47;;
10232;SDS011;5161;48.174;11.756;2023-03-01T09:05:02;32.37;;;22.83;;
10232;SDS011;5161;48.174;11.756;2023-03-01T09:07:28;32.73;;;22.13;;
10232;SDS011;5161;48.174;11.756;2023-03-01T09:09:54;32.57;;;21.70;;
10232;SDS011;5161;48.174;11.756;2023-03-01T09:12:20;29.77;;;22.00;;
10232;SDS011;5161;48.174;11.756;2023-03-01T09:14:49;31.03;;;22.03;;
10232;SDS011;5161;48.174;11.756;2023-03-01T09:17:14;29.53;;;21.70;;
10232;SDS011;5161;48.174;11.756;2023-03-01T09:19:40;32.97;;;23.57;;
10232;SDS011;5161;48.174;11.756;2023-03-01T09:22:06;34.30;;;22.90;;
10232;SDS011;5161;48.174;11.756;2023-03-01T09:24:32;31.13;;;21.93;;
10232;SDS011;5161;48.174;11.756;2023-03-01T09:26:57;37.60;;;23.17;;
10232;SDS011;5161;48.174;11.756;2023-03-01T09:29:23;33.40;;;22.93;;
10232;SDS011;5161;48.174;11.756;2023-03-01T09:31:49;34.10;;;22.73;;
10232;SDS011;5161;48.174;11.756;2023-03-01T09:34:15;33.03;;;23.70;;
10232;SDS011;5161;48.174;11.756;2023-03-01T09:36:44;34.10;;;22.47;;
10232;SDS011;5161;48.174;11.756;2023-03-01T09:39:10;30.90;;;22.53;;
10232;SDS011;5161;48.174;11.756;2023-03-01T09:41:43;33.73;;;22.77;;
10232;SDS011;5161;48.174;11.756;2023-03-01T09:44:18;31.77;;;23.27;;
10232;SDS011;5161;48.174;11.756;2023-03-01T09:47:04;32.43;;;23.83;;
10232;SDS011;5161;48.174;11.756;2023-03-01T09:49:35;33.87;;;23.90;;
10232;SDS011;5161;48.174;11.756;2023-03-01T09:54:44;35.20;;;23.43;;
10232;SDS011;5161;48.174;11.756;2023-03-01T09:57:13;33.87;;;25.10;;
10232;SDS011;5161;48.174;11.756;2023-03-01T09:59:49;32.53;;;24.07;;
10232;SDS011;5161;48.174;11.756;2023-03-01T10:02:41;35.30;;;24.53;;
10232;SDS011;5161;48.174;11.756;2023-03-01T10:05:32;36.50;;;25.20;;
10232;SDS011;5161;48.174;11.756;2023-03-01T10:10:47;34.97;;;25.03;;
10232;SDS011;5161;48.174;11.756;2023-03-01T10:15:59;35.83;;;25.83;;
10232;SDS011;5161;48.174;11.756;2023-03-01T10:18:46;37.27;;;25.33;;
10232;SDS011;5161;48.174;11.756;2023-03-01T10:21:23;34.47;;;24.77;;
10232;SDS011;5161;48.174;11.756;2023-03-01T10:23:52;37.53;;;24.97;;
10232;SDS011;5161;48.174;11.756;2023-03-01T10:29:15;34.30;;;24.27;;
10232;SDS011;5161;48.174;11.756;2023-03-01T10:31:44;37.63;;;26.00;;
10232;SDS011;5161;48.174;11.756;2023-03-01T10:34:19;37.03;;;24.87;;
10232;SDS011;5161;48.174;11.756;2023-03-01T10:37:14;33.30;;;24.23;;
10232;SDS011;5161;48.174;11.756;2023-03-01T10:40:03;33.93;;;23.67;;
10232;SDS011;5161;48.174;11.756;2023-03-01T10:42:34;35.97;;;24.33;;
10232;SDS011;5161;48.174;11.756;2023-03-01T10:50:41;35.33;;;24.27;;
10232;SDS011;5161;48.174;11.756;2023-03-01T10:53:20;34.50;;;24.40;;
10232;SDS011;5161;48.174;11.756;2023-03-01T10:56:07;35.90;;;24.63;;
10232;SDS011;5161;48.174;11.756;2023-03-01T10:58:36;36.63;;;25.47;;
10232;SDS011;5161;48.174;11.756;2023-03-01T11:03:34;32.70;;;24.57;;
10232;SDS011;5161;48.174;11.756;2023-03-01T11:08:44;34.47;;;24.17;;
10232;SDS011;5161;48.174;11.756;2023-03-01T11:13:38;31.60;;;23.00;;
10232;SDS011;5161;48.174;11.756;2023-03-01T11:16:17;34.20;;;25.37;;
10232;SDS011;5161;48.174;11.756;2023-03-01T11:21:38;33.13;;;25.13;;
10232;SDS011;5161;48.174;11.756;2023-03-01T11:24:09;33.43;;;24.23;;
10232;SDS011;5161;48.174;11.756;2023-03-01T11:26:38;35.33;;;25.43;;
10232;SDS011;5161;48.174;11.756;2023-03-01T11:29:30;36.37;;;23.50;;
10232;SDS011;5161;48.174;11.756;2023-03-01T11:32:05;32.40;;;23.97;;
10232;SDS011;5161;48.174;11.756;2023-03-01T11:34:38;31.90;;;24.43;;
10232;SDS011;5161;48.174;11.756;2023-03-01T11:40:50;35.53;;;24.40;;
10232;SDS011;5161;48.174;11.756;2023-03-01T11:43:29;33.47;;;24.67;;
10232;SDS011;5161;48.174;11.756;2023-03-01T11:51:36;34.50;;;24.43;;
10232;SDS011;5161;48.174;11.756;2023-03-01T11:57:00;31.50;;;22.70;;
10232;SDS011;5161;48.174;11.756;2023-03-01T11:59:44;30.63;;;23.00;;
10232;SDS011;5161;48.174;11.756;2023-03-01T12:07:58;32.23;;;23.53;;
10232;SDS011;5161;48.174;11.756;2023-03-01T12:16:22;30.87;;;22.80;;
10232;SDS011;5161;48.174;11.756;2023-03-01T12:19:01;33.07;;;23.67;;
10232;SDS011;5161;48.174;11.756;2023-03-01T12:33:19;29.87;;;23.53;;
10232;SDS011;5161;48.174;11.756;2023-03-01T12:38:59;32.97;;;22.60;;
10232;SDS011;5161;48.174;11.756;2023-03-01T12:47:07;29.13;;;22.90;;
10232;SDS011;5161;48.174;11.756;2023-03-01T12:50:10;28.47;;;23.47;;
10232;SDS011;5161;48.174;11.756;2023-03-01T12:52:52;29.30;;;23.70;;
10232;SDS011;5161;48.174;11.756;2023-03-01T12:55:31;28.17;;;23.27;;
10232;SDS011;5161;48.174;11.756;2023-03-01T12:58:05;29.90;;;23.80;;
10232;SDS011;5161;48.174;11.756;2023-03-01T13:00:56;29.87;;;23.03;;
10232;SDS011;5161;48.174;11.756;2023-03-01T13:04:23;31.43;;;24.60;;
10232;SDS011;5161;48.174;11.756;2023-03-01T13:11:41;31.30;;;24.63;;
10232;SDS011;5161;48.174;11.756;2023-03-01T13:16:46;34.43;;;24.43;;
10232;SDS011;5161;48.174;11.756;2023-03-01T13:21:42;30.80;;;23.63;;
10232;SDS011;5161;48.174;11.756;2023-03-01T13:24:26;30.93;;;24.80;;
10232;SDS011;5161;48.174;11.756;2023-03-01T13:29:32;30.17;;;24.07;;
10232;SDS011;5161;48.174;11.756;2023-03-01T13:32:17;28.23;;;23.47;;
10232;SDS011;5161;48.174;11.756;2023-03-01T13:37:43;29.70;;;23.43;;
10232;SDS011;5161;48.174;11.756;2023-03-01T13:42:44;29.93;;;23.10;;
10232;SDS011;5161;48.174;11.756;2023-03-01T13:45:24;33.80;;;24.83;;
10232;SDS011;5161;48.174;11.756;2023-03-01T13:48:25;31.03;;;24.20;;
10232;SDS011;5161;48.174;11.756;2023-03-01T13:50:56;32.33;;;24.13;;
10232;SDS011;5161;48.174;11.756;2023-03-01T13:53:26;28.83;;;22.87;;
10232;SDS011;5161;48.174;11.756;2023-03-01T13:55:55;31.33;;;23.97;;
10232;SDS011;5161;48.174;11.756;2023-03-01T13:58:31;28.97;;;23.93;;
10232;SDS011;5161;48.174;11.756;2023-03-01T14:01:18;29.83;;;24.27;;
10232;SDS011;5161;48.174;11.756;2023-03-01T14:03:52;32.13;;;23.30;;
10232;SDS011;5161;48.174;11.756;2023-03-01T14:06:25;30.73;;;23.90;;
10232;SDS011;5161;48.174;11.756;2023-03-01T14:20:14;30.03;;;22.00;;
10232;SDS011;5161;48.174;11.756;2023-03-01T14:22:44;27.97;;;20.57;;
10232;SDS011;5161;48.174;11.756;2023-03-01T14:25:22;27.60;;;21.30;;
10232;SDS011;5161;48.174;11.756;2023-03-01T14:28:44;27.33;;;21.53;;
10232;SDS011;5161;48.174;11.756;2023-03-01T14:30:53;27.00;;;20.77;;
10232;SDS011;5161;48.174;11.756;2023-03-01T14:33:27;26.13;;;20.00;;
10232;SDS011;5161;48.174;11.756;2023-03-01T14:36:12;31.13;;;21.03;;
10232;SDS011;5161;48.174;11.756;2023-03-01T14:38:40;27.27;;;21.17;;
10232;SDS011;5161;48.174;11.756;2023-03-01T14:43:41;25.93;;;20.40;;
10232;SDS011;5161;48.174;11.756;2023-03-01T14:46:19;29.13;;;20.60;;
10232;SDS011;5161;48.174;11.756;2023-03-01T14:48:51;24.53;;;19.67;;
10232;SDS011;5161;48.174;11.756;2023-03-01T14:51:19;25.77;;;20.83;;
10232;SDS011;5161;48.174;11.756;2023-03-01T14:53:45;25.83;;;20.17;;
10232;SDS011;5161;48.174;11.756;2023-03-01T14:56:14;24.73;;;20.13;;
10232;SDS011;5161;48.174;11.756;2023-03-01T14:58:42;24.93;;;20.00;;
10232;SDS011;5161;48.174;11.756;2023-03-01T15:01:13;26.47;;;20.87;;
10232;SDS011;5161;48.174;11.756;2023-03-01T15:03:45;25.70;;;20.43;;
10232;SDS011;5161;48.174;11.756;2023-03-01T15:06:22;26.70;;;19.93;;
10232;SDS011;5161;48.174;11.756;2023-03-01T15:08:50;24.27;;;20.33;;
10232;SDS011;5161;48.174;11.756;2023-03-01T15:11:27;28.90;;;19.87;;
10232;SDS011;5161;48.174;11.756;2023-03-01T15:13:55;27.03;;;19.90;;
10232;SDS011;5161;48.174;11.756;2023-03-01T15:16:31;31.00;;;19.97;;
10232;SDS011;5161;48.174;11.756;2023-03-01T15:19:03;23.17;;;18.60;;
10232;SDS011;5161;48.174;11.756;2023-03-01T15:21:34;23.90;;;18.63;;
10232;SDS011;5161;48.174;11.756;2023-03-01T15:24:08;24.40;;;19.03;;
10232;SDS011;5161;48.174;11.756;2023-03-01T15:26:55;25.37;;;19.97;;
10232;SDS011;5161;48.174;11.756;2023-03-01T15:29:32;26.40;;;18.97;;
10232;SDS011;5161;48.174;11.756;2023-03-01T15:32:06;26.80;;;19.07;;
10232;SDS011;5161;48.174;11.756;2023-03-01T15:34:52;22.23;;;17.97;;
10232;SDS011;5161;48.174;11.756;2023-03-01T15:40:18;24.07;;;18.57;;
10232;SDS011;5161;48.174;11.756;2023-03-01T15:42:56;24.90;;;18.53;;
10232;SDS011;5161;48.174;11.756;2023-03-01T15:45:24;23.10;;;18.37;;
10232;SDS011;5161;48.174;11.756;2023-03-01T15:47:55;25.17;;;19.00;;
10232;SDS011;5161;48.174;11.756;2023-03-01T15:50:24;23.43;;;18.50;;
10232;SDS011;5161;48.174;11.756;2023-03-01T15:52:55;23.90;;;18.70;;
10232;SDS011;5161;48.174;11.756;2023-03-01T15:55:27;22.10;;;18.20;;
10232;SDS011;5161;48.174;11.756;2023-03-01T15:58:03;24.50;;;17.67;;
10232;SDS011;5161;48.174;11.756;2023-03-01T16:00:36;25.93;;;17.97;;
10232;SDS011;5161;48.174;11.756;2023-03-01T16:03:02;21.47;;;17.17;;
10232;SDS011;5161;48.174;11.756;2023-03-01T16:05:29;21.20;;;16.37;;
10232;SDS011;5161;48.174;11.756;2023-03-01T16:07:57;22.27;;;17.17;;
10232;SDS011;5161;48.174;11.756;2023-03-01T16:10:22;20.47;;;16.73;;
10232;SDS011;5161;48.174;11.756;2023-03-01T16:12:49;22.63;;;17.57;;
10232;SDS011;5161;48.174;11.756;2023-03-01T16:15:24;19.47;;;16.87;;
10232;SDS011;5161;48.174;11.756;2023-03-01T16:17:53;19.47;;;16.43;;
10232;SDS011;5161;48.174;11.756;2023-03-01T16:20:19;22.03;;;16.70;;
10232;SDS011;5161;48.174;11.756;2023-03-01T16:22:48;22.80;;;16.80;;
10232;SDS011;5161;48.174;11.756;2023-03-01T16:25:15;23.60;;;17.33;;
10232;SDS011;5161;48.174;11.756;2023-03-01T16:27:43;23.50;;;16.97;;
10232;SDS011;5161;48.174;11.756;2023-03-01T16:30:09;19.83;;;16.27;;
10232;SDS011;5161;48.174;11.756;2023-03-01T16:32:39;20.60;;;15.93;;
10232;SDS011;5161;48.174;11.756;2023-03-01T16:35:06;24.00;;;16.53;;
10232;SDS011;5161;48.174;11.756;2023-03-01T16:37:33;21.93;;;15.83;;
10232;SDS011;5161;48.174;11.756;2023-03-01T16:40:00;20.67;;;16.03;;